Terminal Aerodrome Forecast
Issued by NWS Corpus Christi, TX

Home | Current Version | Previous Version | Text Only | Print | Product List | Glossary On
Versions: 1 2 3 4 5 6 7 8 9 10 11 12 13 14
000
FTUS44 KCRP 051128
TAFVCT
TAF
KVCT 051128Z 0512/0612 18005KT P6SM FEW018
      TEMPO 0512/0514 BKN022
     FM051400 20009KT P6SM SCT025 SCT035
     FM051900 16014G20KT P6SM FEW050
     FM060100 17008KT P6SM SKC
     FM060600 18005KT P6SM SCT015=

USA.gov is the U.S. government's official web portal to all federal, state and local government web resources and services.